Time;durP1;ratioP1;P1;durP2;ratioP2;P2;SDS_P1;SDS_P2;PMS_P1;PMS_P2;Temp;Humidity;BMP_temperature;BMP_pressure;BME280_temperature;BME280_humidity;BME280_pressure;Samples;Min_cycle;Max_cycle;Signal;HPM_P1;HPM_P2
2023/06/27 00:01:30;;;;;;;0.30;0.28;;;23.10;91.80;;;;;;5100512;27;20196;-84
2023/06/27 00:04:00;;;;;;;0.95;0.30;;;23.00;91.80;;;;;;5103916;28;20193;-83
2023/06/27 00:06:29;;;;;;;0.20;0.20;;;23.00;91.80;;;;;;5098501;28;20235;-83
2023/06/27 00:08:58;;;;;;;0.80;0.73;;;23.00;91.80;;;;;;5104304;28;20573;-82
2023/06/27 00:11:27;;;;;;;0.90;0.40;;;23.00;91.90;;;;;;5095549;27;20216;-83
2023/06/27 00:13:58;;;;;;;4.95;0.57;;;23.00;91.90;;;;;;5095365;27;20227;-83
2023/06/27 00:16:32;;;;;;;0.20;0.20;;;23.00;92.00;;;;;;5099020;27;20265;-83
2023/06/27 00:19:03;;;;;;;0.30;0.30;;;23.00;91.90;;;;;;5098151;28;20680;-84
2023/06/27 00:21:32;;;;;;;0.30;0.30;;;23.00;92.00;;;;;;5100984;27;20198;-83
2023/06/27 00:24:01;;;;;;;1.65;0.90;;;23.00;92.00;;;;;;5107309;27;20211;-84
2023/06/27 00:26:31;;;;;;;0.35;0.35;;;22.90;92.00;;;;;;5101185;27;20200;-84
2023/06/27 00:28:59;;;;;;;0.40;0.40;;;22.90;92.00;;;;;;5100924;27;20201;-84
2023/06/27 00:31:27;;;;;;;0.50;0.40;;;23.00;92.00;;;;;;5093569;28;20305;-84
2023/06/27 00:33:56;;;;;;;0.30;0.30;;;22.90;92.00;;;;;;5099259;27;20197;-83
2023/06/27 00:36:24;;;;;;;0.30;0.30;;;22.90;92.00;;;;;;5105976;27;20552;-83
2023/06/27 00:38:53;;;;;;;0.20;0.20;;;22.80;92.00;;;;;;5117905;27;20233;-82
2023/06/27 00:41:21;;;;;;;0.30;0.30;;;22.90;92.00;;;;;;5100078;27;20853;-83
2023/06/27 00:43:51;;;;;;;0.50;0.50;;;22.80;92.00;;;;;;5100121;27;20193;-83
2023/06/27 00:46:31;;;;;;;0.40;0.40;;;22.80;92.30;;;;;;5095395;28;20217;-83
2023/06/27 00:48:59;;;;;;;0.20;0.20;;;22.80;92.00;;;;;;5107605;27;20196;-84
2023/06/27 00:51:28;;;;;;;3.28;0.85;;;22.80;92.00;;;;;;5099952;27;20225;-85
2023/06/27 00:53:57;;;;;;;0.35;0.32;;;22.80;92.40;;;;;;5095033;28;20201;-84
2023/06/27 00:56:27;;;;;;;0.38;0.28;;;22.80;92.00;;;;;;5097741;27;20205;-84
2023/06/27 00:59:00;;;;;;;1.70;0.90;;;22.70;92.00;;;;;;5096714;28;20208;-85
2023/06/27 01:01:30;;;;;;;0.30;0.30;;;22.70;92.00;;;;;;5095280;28;20196;-83
2023/06/27 01:03:58;;;;;;;0.60;0.60;;;22.70;92.00;;;;;;5102362;28;20280;-83
2023/06/27 01:06:34;;;;;;;0.20;0.20;;;22.70;92.40;;;;;;5098311;27;20216;-84
2023/06/27 01:09:06;;;;;;;1.45;1.35;;;22.70;92.00;;;;;;5103554;28;20192;-84
2023/06/27 01:11:40;;;;;;;0.65;0.65;;;22.70;92.00;;;;;;5099483;27;20218;-83
2023/06/27 01:14:13;;;;;;;0.75;0.50;;;22.70;92.00;;;;;;5100321;28;20189;-83
2023/06/27 01:16:42;;;;;;;0.30;0.30;;;22.70;92.00;;;;;;5101356;28;20694;-84
2023/06/27 01:19:12;;;;;;;0.30;0.30;;;22.70;92.00;;;;;;5108148;27;20193;-83
2023/06/27 01:21:42;;;;;;;0.95;0.63;;;22.70;91.90;;;;;;5104859;28;20197;-82
2023/06/27 01:24:12;;;;;;;0.68;0.35;;;22.70;91.90;;;;;;5099071;28;20262;-83
2023/06/27 01:26:40;;;;;;;0.40;0.40;;;22.70;91.90;;;;;;5096622;28;20262;-84
2023/06/27 01:29:11;;;;;;;0.45;0.45;;;22.70;91.90;;;;;;5099833;27;20254;-81
2023/06/27 01:31:44;;;;;;;2.00;1.13;;;22.70;91.80;;;;;;5085274;28;20579;-84
2023/06/27 01:34:19;;;;;;;0.32;0.32;;;22.70;91.80;;;;;;5090723;28;20267;-84
2023/06/27 01:36:51;;;;;;;1.05;0.90;;;22.70;91.90;;;;;;5094745;28;20660;-83
2023/06/27 01:39:27;;;;;;;0.20;0.20;;;22.70;91.80;;;;;;5102171;28;20275;-84
2023/06/27 01:42:04;;;;;;;0.30;0.30;;;22.60;91.80;;;;;;5110514;28;20189;-83
2023/06/27 01:44:34;;;;;;;4.95;0.93;;;22.70;91.80;;;;;;5102635;28;20244;-81
2023/06/27 01:47:02;;;;;;;0.30;0.30;;;22.60;91.80;;;;;;5102264;28;20185;-82
2023/06/27 01:49:31;;;;;;;1.27;0.73;;;22.60;91.80;;;;;;5107789;28;20188;-84
2023/06/27 01:52:00;;;;;;;0.50;0.50;;;22.60;91.70;;;;;;5104837;28;20214;-82
2023/06/27 01:54:30;;;;;;;0.30;0.30;;;22.60;91.70;;;;;;5098688;28;20205;-83
2023/06/27 01:56:58;;;;;;;0.40;0.40;;;22.60;91.70;;;;;;5090453;28;20310;-84
2023/06/27 01:59:27;;;;;;;3.58;0.60;;;22.60;91.70;;;;;;5090109;28;20673;-82
2023/06/27 02:01:55;;;;;;;1.70;1.10;;;22.60;91.70;;;;;;5098852;28;20197;-83
2023/06/27 02:04:24;;;;;;;0.63;0.50;;;22.60;91.80;;;;;;5103665;28;20185;-82
2023/06/27 02:06:53;;;;;;;0.52;0.30;;;22.50;91.80;;;;;;5092581;28;20286;-85
2023/06/27 02:09:22;;;;;;;0.30;0.30;;;22.50;91.80;;;;;;5100607;28;20243;-83
2023/06/27 02:11:52;;;;;;;0.55;0.55;;;22.50;91.80;;;;;;5090601;28;20217;-83
2023/06/27 02:14:20;;;;;;;0.40;0.40;;;22.50;91.70;;;;;;5106232;27;20242;-82
2023/06/27 02:16:49;;;;;;;0.40;0.40;;;22.50;91.70;;;;;;5104478;27;20196;-83
2023/06/27 02:19:18;;;;;;;0.43;0.32;;;22.50;91.60;;;;;;5097743;27;21427;-83
2023/06/27 02:21:47;;;;;;;0.52;0.52;;;22.50;91.60;;;;;;5097934;27;20185;-83
2023/06/27 02:24:15;;;;;;;0.50;0.50;;;22.50;91.50;;;;;;5096536;27;20194;-83
2023/06/27 02:26:44;;;;;;;1.10;1.00;;;22.50;91.50;;;;;;5083146;28;20875;-82
2023/06/27 02:29:14;;;;;;;0.30;0.30;;;22.50;91.50;;;;;;5115344;27;20194;-83
2023/06/27 02:31:43;;;;;;;0.50;0.30;;;22.40;91.50;;;;;;5100998;27;20209;-84
2023/06/27 02:34:12;;;;;;;0.50;0.50;;;22.40;91.40;;;;;;5097843;28;21460;-84
2023/06/27 02:36:40;;;;;;;1.00;0.57;;;22.40;91.40;;;;;;5105113;27;20259;-83
2023/06/27 02:39:10;;;;;;;0.75;0.68;;;22.40;91.40;;;;;;5103461;27;20205;-84
2023/06/27 02:41:38;;;;;;;0.43;0.43;;;22.40;91.40;;;;;;5100298;27;20700;-84
2023/06/27 02:44:07;;;;;;;0.22;0.22;;;22.40;91.40;;;;;;5108200;27;20189;-85
2023/06/27 02:46:40;;;;;;;0.50;0.45;;;22.30;91.30;;;;;;5105333;27;20277;-84
2023/06/27 02:49:09;;;;;;;0.82;0.82;;;22.30;91.30;;;;;;5095714;27;20193;-84
2023/06/27 02:51:37;;;;;;;0.25;0.25;;;22.30;91.30;;;;;;5104097;27;20217;-84
2023/06/27 02:54:06;;;;;;;3.08;1.67;;;22.30;91.30;;;;;;5098189;28;20267;-85
2023/06/27 02:56:34;;;;;;;0.15;0.15;;;22.20;91.40;;;;;;5093454;28;20209;-84
2023/06/27 02:59:03;;;;;;;0.20;0.20;;;22.20;91.40;;;;;;5096784;27;20675;-83
2023/06/27 03:01:32;;;;;;;0.28;0.28;;;22.20;91.40;;;;;;5096575;28;20197;-82
2023/06/27 03:04:02;;;;;;;1.75;0.40;;;22.20;91.40;;;;;;5106164;27;20560;-82
2023/06/27 03:06:46;;;;;;;0.50;0.32;;;22.20;91.40;;;;;;5098451;27;20218;-83
2023/06/27 03:09:16;;;;;;;0.20;0.20;;;22.10;91.40;;;;;;5108085;27;20205;-83
2023/06/27 03:11:46;;;;;;;1.20;0.60;;;22.10;91.40;;;;;;5096276;27;20380;-82
2023/06/27 03:14:17;;;;;;;0.20;0.20;;;22.10;91.40;;;;;;5102428;28;20200;-84
2023/06/27 03:16:46;;;;;;;0.43;0.40;;;22.10;91.60;;;;;;5093954;28;20265;-84
2023/06/27 03:19:16;;;;;;;0.22;0.22;;;22.10;91.50;;;;;;5097738;28;20316;-80
2023/06/27 03:21:57;;;;;;;0.40;0.40;;;22.10;91.50;;;;;;5099219;27;20193;-84
2023/06/27 03:24:26;;;;;;;0.30;0.30;;;22.10;91.50;;;;;;5100947;28;20213;-84
2023/06/27 03:26:54;;;;;;;0.55;0.50;;;22.10;91.50;;;;;;5104762;27;20197;-83
2023/06/27 03:29:23;;;;;;;0.38;0.38;;;22.10;91.60;;;;;;5103928;27;20755;-84
2023/06/27 03:31:57;;;;;;;0.90;0.73;;;22.10;91.60;;;;;;5092622;28;20553;-83
2023/06/27 03:34:27;;;;;;;1.75;0.75;;;22.10;91.70;;;;;;5098274;27;20204;-84
2023/06/27 03:36:55;;;;;;;1.05;0.50;;;22.10;91.70;;;;;;5098420;28;20189;-85
2023/06/27 03:39:24;;;;;;;0.45;0.45;;;22.10;91.80;;;;;;5107577;27;20220;-84
2023/06/27 03:41:52;;;;;;;0.65;0.35;;;22.10;91.80;;;;;;5094674;28;20194;-83
2023/06/27 03:44:21;;;;;;;0.65;0.65;;;22.10;91.80;;;;;;5099920;28;20215;-83
2023/06/27 03:46:49;;;;;;;0.30;0.30;;;22.10;91.80;;;;;;5100205;27;20646;-83
2023/06/27 03:49:17;;;;;;;0.75;0.73;;;22.10;91.90;;;;;;5102112;27;20200;-85
2023/06/27 03:51:47;;;;;;;0.20;0.20;;;22.10;91.90;;;;;;5096673;27;22513;-84
2023/06/27 03:54:16;;;;;;;0.20;0.20;;;22.20;91.90;;;;;;5102301;27;20223;-84
2023/06/27 03:56:44;;;;;;;0.60;0.60;;;22.20;91.90;;;;;;5095004;27;20196;-84
2023/06/27 03:59:12;;;;;;;2.38;0.50;;;22.20;91.80;;;;;;5105131;27;20247;-83
2023/06/27 04:01:41;;;;;;;1.10;0.90;;;22.30;91.80;;;;;;5095257;27;20209;-84
2023/06/27 04:04:09;;;;;;;0.35;0.35;;;22.30;91.80;;;;;;5102545;27;20197;-82
2023/06/27 04:06:42;;;;;;;0.32;0.30;;;22.30;91.70;;;;;;5098552;28;20247;-84
2023/06/27 04:09:13;;;;;;;0.40;0.40;;;22.40;91.80;;;;;;5090869;28;20194;-84
2023/06/27 04:11:41;;;;;;;0.68;0.65;;;22.40;91.80;;;;;;5092033;28;20690;-84
2023/06/27 04:14:10;;;;;;;0.45;0.40;;;22.50;91.80;;;;;;5099530;27;20222;-84
2023/06/27 04:16:39;;;;;;;0.50;0.50;;;22.50;91.70;;;;;;5104038;28;20193;-83
2023/06/27 04:19:08;;;;;;;0.75;0.75;;;22.60;91.80;;;;;;5104037;27;20279;-84
2023/06/27 04:21:36;;;;;;;0.80;0.52;;;22.60;91.70;;;;;;5092486;27;20194;-84
2023/06/27 04:24:05;;;;;;;1.23;0.75;;;22.60;91.70;;;;;;5099388;27;20201;-84
2023/06/27 04:26:35;;;;;;;0.50;0.43;;;22.60;91.60;;;;;;5098074;27;20250;-84
2023/06/27 04:29:04;;;;;;;0.30;0.30;;;22.70;91.70;;;;;;5101579;27;20189;-84
2023/06/27 04:31:32;;;;;;;0.20;0.20;;;22.70;91.70;;;;;;5094399;28;20577;-82
2023/06/27 04:34:01;;;;;;;0.75;0.57;;;22.70;91.70;;;;;;5096659;27;20244;-84
2023/06/27 04:36:30;;;;;;;0.30;0.30;;;22.80;92.10;;;;;;5105058;27;20200;-84
2023/06/27 04:38:58;;;;;;;0.75;0.65;;;22.80;91.70;;;;;;5094851;27;20658;-83
2023/06/27 04:41:29;;;;;;;0.98;0.68;;;22.80;91.80;;;;;;5107620;27;20192;-84
2023/06/27 04:43:59;;;;;;;0.40;0.40;;;22.90;91.90;;;;;;5097000;28;20562;-83
2023/06/27 04:46:28;;;;;;;1.05;0.68;;;22.90;91.70;;;;;;5098786;27;20577;-85
2023/06/27 04:48:57;;;;;;;0.50;0.50;;;23.00;91.70;;;;;;5098641;28;20254;-85
2023/06/27 04:51:28;;;;;;;0.82;0.82;;;23.00;91.50;;;;;;5099108;28;20201;-85
2023/06/27 04:53:59;;;;;;;3.20;0.82;;;23.00;91.40;;;;;;5098748;27;20209;-86
2023/06/27 04:56:30;;;;;;;0.60;0.38;;;23.10;91.40;;;;;;5096950;27;20681;-85
2023/06/27 04:59:01;;;;;;;0.70;0.57;;;23.10;91.30;;;;;;5094975;28;20597;-86
2023/06/27 05:01:29;;;;;;;2.22;0.98;;;23.20;91.40;;;;;;5097727;28;20537;-83
2023/06/27 05:04:04;;;;;;;0.70;0.70;;;23.20;91.50;;;;;;5098772;28;20190;-85
2023/06/27 05:06:34;;;;;;;1.08;0.82;;;23.20;91.50;;;;;;5089418;28;20240;-83
2023/06/27 05:09:03;;;;;;;0.30;0.30;;;23.20;91.40;;;;;;5097802;28;20280;-84
2023/06/27 05:11:32;;;;;;;10.40;2.33;;;23.20;91.40;;;;;;5104111;28;20211;-87
2023/06/27 05:14:05;;;;;;;1.00;0.80;;;23.30;91.50;;;;;;5107235;28;20618;-86
2023/06/27 05:16:33;;;;;;;0.65;0.50;;;23.30;91.70;;;;;;5098992;28;20189;-86
2023/06/27 05:19:01;;;;;;;3.05;1.17;;;23.40;91.80;;;;;;5091149;28;20201;-85
2023/06/27 05:21:30;;;;;;;0.90;0.50;;;23.40;91.80;;;;;;5090941;28;20220;-86
2023/06/27 05:23:59;;;;;;;0.90;0.90;;;23.50;91.80;;;;;;5101594;27;20193;-86
2023/06/27 05:26:27;;;;;;;0.68;0.68;;;23.50;91.90;;;;;;5092063;28;20194;-85
2023/06/27 05:28:57;;;;;;;2.03;0.70;;;23.50;91.90;;;;;;5089685;28;20604;-86
2023/06/27 05:31:27;;;;;;;2.88;0.50;;;23.60;92.40;;;;;;5091729;28;20611;-85
2023/06/27 05:33:56;;;;;;;2.83;1.10;;;23.60;92.80;;;;;;5092234;27;20217;-86
2023/06/27 05:36:25;;;;;;;0.95;0.95;;;23.60;92.80;;;;;;5096773;28;20193;-84
2023/06/27 05:38:54;;;;;;;1.13;0.68;;;23.60;93.10;;;;;;5099638;27;20563;-83
2023/06/27 05:41:23;;;;;;;3.20;0.98;;;23.70;93.00;;;;;;5095802;28;20197;-84
2023/06/27 05:43:51;;;;;;;8.45;1.50;;;23.70;93.00;;;;;;5098690;27;20550;-86
2023/06/27 05:46:20;;;;;;;0.43;0.40;;;23.70;92.90;;;;;;5103332;28;20201;-86
2023/06/27 05:48:50;;;;;;;0.40;0.40;;;23.80;92.80;;;;;;5106927;27;20236;-83
2023/06/27 05:51:20;;;;;;;1.08;0.82;;;23.90;92.80;;;;;;5112730;27;20209;-85
2023/06/27 05:53:49;;;;;;;1.25;1.13;;;23.90;92.70;;;;;;5095430;28;20243;-84
2023/06/27 05:56:18;;;;;;;1.75;0.63;;;24.00;92.50;;;;;;5106070;28;20190;-85
2023/06/27 05:58:46;;;;;;;0.60;0.60;;;24.10;92.30;;;;;;5109323;27;20594;-83
2023/06/27 06:01:15;;;;;;;0.50;0.40;;;24.10;92.20;;;;;;5113310;27;20220;-85
2023/06/27 06:03:43;;;;;;;0.57;0.47;;;24.20;92.10;;;;;;5115572;27;20204;-85
2023/06/27 06:06:13;;;;;;;2.28;0.80;;;24.30;92.00;;;;;;5097561;28;20233;-86
2023/06/27 06:08:41;;;;;;;0.80;0.75;;;24.30;91.80;;;;;;5102424;27;20205;-86
2023/06/27 06:11:10;;;;;;;0.95;0.57;;;24.40;91.70;;;;;;5096957;27;20200;-85
2023/06/27 06:13:38;;;;;;;0.70;0.70;;;24.50;91.60;;;;;;5096253;28;20961;-84
2023/06/27 06:16:07;;;;;;;0.95;0.85;;;24.60;91.40;;;;;;5097778;28;20194;-84
2023/06/27 06:18:35;;;;;;;0.55;0.55;;;24.60;91.30;;;;;;5104283;28;20219;-84
2023/06/27 06:21:03;;;;;;;0.50;0.50;;;24.70;91.20;;;;;;5095987;28;20197;-85
2023/06/27 06:23:33;;;;;;;1.05;0.90;;;24.80;91.10;;;;;;5099615;28;20193;-85
2023/06/27 06:26:02;;;;;;;2.47;1.08;;;24.90;91.00;;;;;;5094353;28;20730;-82
2023/06/27 06:28:30;;;;;;;0.38;0.30;;;24.90;90.80;;;;;;5107631;27;20197;-83
2023/06/27 06:30:58;;;;;;;0.88;0.63;;;25.00;90.70;;;;;;5101169;28;20249;-86
2023/06/27 06:33:27;;;;;;;0.50;0.50;;;25.10;90.60;;;;;;5097266;28;20198;-85
2023/06/27 06:35:57;;;;;;;0.55;0.47;;;25.10;90.20;;;;;;5092992;28;20647;-84
2023/06/27 06:38:26;;;;;;;0.30;0.30;;;25.20;90.20;;;;;;5093469;28;20193;-85
2023/06/27 06:40:56;;;;;;;0.93;0.57;;;25.20;89.90;;;;;;5103950;28;20204;-85
2023/06/27 06:43:25;;;;;;;2.60;1.42;;;25.40;89.90;;;;;;5109579;28;20201;-85
2023/06/27 06:45:54;;;;;;;0.63;0.57;;;25.40;90.00;;;;;;5107207;28;20196;-84
2023/06/27 06:48:23;;;;;;;0.45;0.45;;;25.40;90.00;;;;;;5114606;27;20196;-84
2023/06/27 06:50:52;;;;;;;0.57;0.57;;;25.40;89.50;;;;;;5100844;28;20197;-85
2023/06/27 06:53:21;;;;;;;0.47;0.47;;;25.50;89.70;;;;;;5100927;28;20188;-84
2023/06/27 06:55:49;;;;;;;0.63;0.63;;;25.60;89.80;;;;;;5094289;28;20776;-85
2023/06/27 06:58:19;;;;;;;0.70;0.70;;;25.60;89.40;;;;;;5109518;28;20542;-85
2023/06/27 07:00:48;;;;;;;0.38;0.38;;;25.60;89.10;;;;;;5101763;27;20662;-84
2023/06/27 07:03:16;;;;;;;0.35;0.35;;;25.70;88.80;;;;;;5099005;28;20213;-83
2023/06/27 07:05:45;;;;;;;0.45;0.35;;;25.80;88.40;;;;;;5106311;28;20255;-84
2023/06/27 07:08:13;;;;;;;6.03;0.82;;;25.80;88.60;;;;;;5098142;27;20688;-83
2023/06/27 07:10:42;;;;;;;1.60;1.25;;;25.90;88.40;;;;;;5091488;28;20202;-84
2023/06/27 07:13:10;;;;;;;0.30;0.30;;;25.90;88.30;;;;;;5096357;27;20193;-84
2023/06/27 07:15:40;;;;;;;0.47;0.45;;;26.00;88.40;;;;;;5101233;28;20228;-87
2023/06/27 07:18:09;;;;;;;2.20;0.50;;;26.00;88.00;;;;;;5101333;28;20270;-84
2023/06/27 07:20:37;;;;;;;0.70;0.60;;;26.10;87.60;;;;;;5103945;28;20197;-86
2023/06/27 07:23:06;;;;;;;0.30;0.30;;;26.10;87.30;;;;;;5094089;28;20197;-84
2023/06/27 07:25:36;;;;;;;0.57;0.50;;;26.20;86.80;;;;;;5092788;28;20197;-86
2023/06/27 07:28:05;;;;;;;1.00;0.85;;;26.20;86.50;;;;;;5091043;27;20189;-86
2023/06/27 07:30:34;;;;;;;0.47;0.47;;;26.30;86.40;;;;;;5097837;28;20201;-87
2023/06/27 07:33:04;;;;;;;0.45;0.45;;;26.40;86.10;;;;;;5097369;27;20209;-84
2023/06/27 07:35:32;;;;;;;1.08;0.40;;;26.40;81.80;;;;;;5098960;27;20282;-85
2023/06/27 07:38:01;;;;;;;0.40;0.35;;;26.40;80.20;;;;;;5101174;28;20208;-84
2023/06/27 07:40:29;;;;;;;0.22;0.22;;;26.50;81.10;;;;;;5103011;28;20317;-86
2023/06/27 07:42:58;;;;;;;0.90;0.70;;;26.50;81.40;;;;;;5102911;27;20608;-83
2023/06/27 07:45:27;;;;;;;0.60;0.60;;;26.50;79.70;;;;;;5097699;28;20201;-85
2023/06/27 07:47:55;;;;;;;9.65;1.48;;;26.60;79.60;;;;;;5093571;28;20694;-83
2023/06/27 07:50:25;;;;;;;0.52;0.52;;;26.70;78.20;;;;;;5111383;27;20283;-85
2023/06/27 07:52:54;;;;;;;0.32;0.32;;;26.70;78.30;;;;;;5097375;28;20186;-83
2023/06/27 07:55:22;;;;;;;0.55;0.50;;;26.80;76.80;;;;;;5100081;27;20724;-84
2023/06/27 07:57:50;;;;;;;0.35;0.35;;;26.80;77.10;;;;;;5098403;28;20197;-85
2023/06/27 08:00:22;;;;;;;0.95;0.75;;;26.80;76.10;;;;;;5090047;27;20198;-83
2023/06/27 08:02:51;;;;;;;0.35;0.35;;;26.90;73.30;;;;;;5099378;27;20434;-83
2023/06/27 08:05:20;;;;;;;1.27;0.73;;;26.90;70.60;;;;;;5098076;27;20693;-84
2023/06/27 08:07:50;;;;;;;0.17;0.17;;;26.90;69.50;;;;;;5105572;27;20206;-85
2023/06/27 08:10:18;;;;;;;0.38;0.38;;;27.00;70.40;;;;;;5098306;27;20206;-85
2023/06/27 08:12:49;;;;;;;0.30;0.30;;;27.00;68.00;;;;;;5091806;28;20654;-84
2023/06/27 08:15:17;;;;;;;0.35;0.35;;;27.00;65.70;;;;;;5098356;27;20260;-84
2023/06/27 08:17:46;;;;;;;0.38;0.38;;;27.10;67.40;;;;;;5095725;27;20205;-83
2023/06/27 08:20:14;;;;;;;2.05;0.95;;;27.10;68.00;;;;;;5102597;27;20201;-84
2023/06/27 08:22:43;;;;;;;0.40;0.40;;;27.10;68.30;;;;;;5100095;28;20197;-83
2023/06/27 08:25:13;;;;;;;0.52;0.52;;;27.20;68.00;;;;;;5103195;27;20193;-84
2023/06/27 08:27:41;;;;;;;0.40;0.35;;;27.20;68.00;;;;;;5097734;28;20197;-83
2023/06/27 08:30:10;;;;;;;0.55;0.55;;;27.30;67.80;;;;;;5092196;27;20201;-81
2023/06/27 08:32:39;;;;;;;0.20;0.20;;;27.30;67.30;;;;;;5090811;28;20194;-87
2023/06/27 08:35:08;;;;;;;0.40;0.40;;;27.40;67.10;;;;;;5097311;27;20211;-84
2023/06/27 08:37:36;;;;;;;3.33;0.70;;;27.40;64.40;;;;;;5093484;28;20571;-84
2023/06/27 08:40:06;;;;;;;0.65;0.65;;;27.40;65.30;;;;;;5100371;27;20561;-84
2023/06/27 08:42:36;;;;;;;0.30;0.30;;;27.50;66.40;;;;;;5094583;28;20282;-84
2023/06/27 08:45:06;;;;;;;0.95;0.40;;;27.50;66.60;;;;;;5090228;28;20186;-84
2023/06/27 08:47:36;;;;;;;0.40;0.40;;;27.60;67.60;;;;;;5098618;28;20193;-83
2023/06/27 08:50:08;;;;;;;2.47;1.10;;;27.60;67.30;;;;;;5104476;27;20202;-83
2023/06/27 08:52:42;;;;;;;1.20;0.52;;;27.60;67.90;;;;;;5100775;27;20196;-83
2023/06/27 08:55:18;;;;;;;0.20;0.20;;;27.70;67.40;;;;;;5098608;27;20224;-83
2023/06/27 08:57:48;;;;;;;1.88;0.68;;;27.80;67.80;;;;;;5096872;27;20201;-84
2023/06/27 09:00:22;;;;;;;12.82;2.10;;;27.90;68.00;;;;;;5091823;27;20293;-83
2023/06/27 09:02:50;;;;;;;0.73;0.63;;;27.90;67.90;;;;;;5109445;27;20267;-86
2023/06/27 09:05:20;;;;;;;2.35;0.40;;;28.00;67.90;;;;;;5099652;27;20315;-87
2023/06/27 09:07:50;;;;;;;0.40;0.40;;;28.00;67.50;;;;;;5098639;28;20203;-86
2023/06/27 09:10:19;;;;;;;0.55;0.50;;;28.10;67.10;;;;;;5090838;28;20188;-84
2023/06/27 09:12:53;;;;;;;2.33;0.60;;;28.10;66.70;;;;;;5093944;28;20216;-86
2023/06/27 09:15:22;;;;;;;0.30;0.30;;;28.20;67.10;;;;;;5094038;28;20209;-86
2023/06/27 09:17:50;;;;;;;0.50;0.50;;;28.20;66.50;;;;;;5107093;28;20189;-85
2023/06/27 09:20:20;;;;;;;2.90;0.50;;;28.20;64.90;;;;;;5110306;27;20224;-87
2023/06/27 09:22:49;;;;;;;1.42;0.90;;;28.30;65.80;;;;;;5100728;27;20193;-86
2023/06/27 09:25:19;;;;;;;0.50;0.50;;;28.40;65.20;;;;;;5103463;27;20217;-85
2023/06/27 09:27:52;;;;;;;0.28;0.28;;;28.40;64.10;;;;;;5094518;28;20194;-86
2023/06/27 09:30:23;;;;;;;0.50;0.50;;;28.50;64.80;;;;;;5094139;28;20662;-86
2023/06/27 09:32:56;;;;;;;0.40;0.40;;;28.60;65.10;;;;;;5097868;27;20189;-84
2023/06/27 09:35:26;;;;;;;0.55;0.40;;;28.60;63.80;;;;;;5106101;27;20217;-86
2023/06/27 09:38:15;;;;;;;0.70;0.45;;;28.70;63.10;;;;;;5099308;27;20225;-84
2023/06/27 09:40:48;;;;;;;0.30;0.30;;;28.80;63.10;;;;;;5094902;28;20198;-86
2023/06/27 09:43:21;;;;;;;0.80;0.80;;;28.90;64.10;;;;;;5091090;27;20226;-86
2023/06/27 09:45:58;;;;;;;0.40;0.40;;;29.00;63.80;;;;;;5100115;27;20186;-86
2023/06/27 09:48:29;;;;;;;0.40;0.40;;;29.00;62.20;;;;;;5106978;27;20674;-86
2023/06/27 09:51:02;;;;;;;0.88;0.65;;;29.10;62.60;;;;;;5092955;28;20196;-85
2023/06/27 09:53:31;;;;;;;0.32;0.32;;;29.00;60.90;;;;;;5113761;27;20242;-85
2023/06/27 09:56:02;;;;;;;0.20;0.20;;;29.10;62.50;;;;;;5097025;27;20734;-85
2023/06/27 09:58:33;;;;;;;0.52;0.40;;;29.10;62.50;;;;;;5111613;27;20662;-85
2023/06/27 10:01:07;;;;;;;0.40;0.40;;;29.20;62.30;;;;;;5114213;27;20463;-84
2023/06/27 10:03:36;;;;;;;1.25;0.98;;;29.30;60.80;;;;;;5109578;27;20189;-86
2023/06/27 10:06:05;;;;;;;0.28;0.28;;;29.30;60.90;;;;;;5099680;28;20234;-86
2023/06/27 10:08:40;;;;;;;1.15;0.65;;;29.40;62.00;;;;;;5107358;27;20188;-84
2023/06/27 10:11:09;;;;;;;3.13;0.90;;;29.40;61.40;;;;;;5105792;27;20197;-85
2023/06/27 10:13:42;;;;;;;0.50;0.50;;;29.50;61.30;;;;;;5113202;27;20197;-86
2023/06/27 10:16:12;;;;;;;1.05;0.82;;;29.60;60.40;;;;;;5106067;27;20209;-83
2023/06/27 10:18:41;;;;;;;0.85;0.75;;;29.60;60.00;;;;;;5113143;27;20284;-84
2023/06/27 10:21:10;;;;;;;2.92;1.02;;;29.60;58.50;;;;;;5096453;28;20235;-83
2023/06/27 10:23:41;;;;;;;0.95;0.40;;;29.70;59.20;;;;;;5113640;27;20297;-83
2023/06/27 10:26:10;;;;;;;0.43;0.43;;;29.80;60.00;;;;;;5102351;27;21168;-86
2023/06/27 10:28:48;;;;;;;0.63;0.63;;;29.80;59.70;;;;;;5112945;27;20197;-86
2023/06/27 10:31:38;;;;;;;0.60;0.60;;;29.90;60.60;;;;;;5095437;27;20636;-87
2023/06/27 10:34:07;;;;;;;0.45;0.45;;;29.90;58.00;;;;;;5097034;27;20239;-85
2023/06/27 10:36:53;;;;;;;0.57;0.57;;;29.90;58.60;;;;;;5101395;27;20229;-86
2023/06/27 10:39:32;;;;;;;0.60;0.40;;;29.90;58.50;;;;;;5094775;28;20204;-84
2023/06/27 10:42:01;;;;;;;0.20;0.20;;;29.90;58.90;;;;;;5112533;27;20196;-88
2023/06/27 10:44:32;;;;;;;0.38;0.30;;;30.00;59.30;;;;;;5096377;28;20611;-88
2023/06/27 10:47:30;;;;;;;0.20;0.20;;;30.10;58.80;;;;;;5094996;28;20277;-86
2023/06/27 10:50:10;;;;;;;0.38;0.38;;;30.20;59.00;;;;;;5110830;28;20279;-86
2023/06/27 10:52:40;;;;;;;0.77;0.32;;;30.20;59.00;;;;;;5112254;27;20204;-86
2023/06/27 10:55:22;;;;;;;0.60;0.50;;;30.10;57.70;;;;;;5099172;27;20606;-84
2023/06/27 10:58:02;;;;;;;0.22;0.22;;;30.20;58.20;;;;;;5103122;28;20689;-83
2023/06/27 11:00:34;;;;;;;0.43;0.35;;;30.30;58.20;;;;;;5093164;28;20201;-85
2023/06/27 11:03:05;;;;;;;0.50;0.50;;;30.30;58.90;;;;;;5102551;27;20200;-84
2023/06/27 11:05:46;;;;;;;0.40;0.35;;;30.30;58.40;;;;;;5096536;27;20247;-85
2023/06/27 11:08:17;;;;;;;0.95;0.75;;;30.20;58.10;;;;;;5101561;27;20204;-84
2023/06/27 11:11:02;;;;;;;0.50;0.50;;;30.20;57.50;;;;;;5104643;27;20197;-86
2023/06/27 11:13:34;;;;;;;0.50;0.40;;;30.20;57.60;;;;;;5094285;27;20190;-86
2023/06/27 11:16:04;;;;;;;0.70;0.70;;;30.20;56.50;;;;;;5101598;28;20281;-85
2023/06/27 11:18:35;;;;;;;0.57;0.35;;;30.30;57.30;;;;;;5100824;27;20193;-84
2023/06/27 11:21:05;;;;;;;0.43;0.43;;;30.30;56.20;;;;;;5099953;27;20197;-85
2023/06/27 11:23:34;;;;;;;0.28;0.28;;;30.40;57.40;;;;;;5098253;27;20198;-84
2023/06/27 11:26:03;;;;;;;0.32;0.32;;;30.50;57.60;;;;;;5095216;28;20197;-85
2023/06/27 11:28:31;;;;;;;0.68;0.65;;;30.50;56.90;;;;;;5100506;27;20202;-86
2023/06/27 11:31:01;;;;;;;14.70;1.85;;;30.60;57.10;;;;;;5098302;28;20194;-85
2023/06/27 11:33:31;;;;;;;0.25;0.25;;;30.60;56.20;;;;;;5105567;28;20208;-86
2023/06/27 11:36:00;;;;;;;0.40;0.40;;;30.70;56.80;;;;;;5091294;28;20193;-85
2023/06/27 11:38:30;;;;;;;0.32;0.32;;;30.80;56.50;;;;;;5089292;27;20293;-85
2023/06/27 11:40:58;;;;;;;0.30;0.30;;;30.80;56.40;;;;;;5096704;28;20196;-86
2023/06/27 11:43:27;;;;;;;5.18;0.30;;;30.80;55.70;;;;;;5110529;27;20197;-85
2023/06/27 11:45:58;;;;;;;0.95;0.55;;;31.00;56.70;;;;;;5099350;28;20806;-87
2023/06/27 11:48:27;;;;;;;1.70;1.02;;;31.00;56.60;;;;;;5109785;27;20231;-84
2023/06/27 11:50:59;;;;;;;2.13;1.60;;;31.10;56.00;;;;;;5102179;28;20200;-85
2023/06/27 11:53:28;;;;;;;0.20;0.20;;;31.10;55.90;;;;;;5097903;28;20209;-84
2023/06/27 11:55:57;;;;;;;0.30;0.30;;;31.20;54.50;;;;;;5095381;27;20192;-84
2023/06/27 11:58:33;;;;;;;0.32;0.32;;;31.30;54.20;;;;;;5108327;27;20258;-84
2023/06/27 12:01:02;;;;;;;0.60;0.52;;;31.40;54.70;;;;;;5090991;28;20738;-84
2023/06/27 12:03:34;;;;;;;0.20;0.20;;;31.40;54.90;;;;;;5113589;27;20193;-84
2023/06/27 12:06:04;;;;;;;0.55;0.55;;;31.30;55.00;;;;;;5091142;28;20247;-85
2023/06/27 12:08:33;;;;;;;0.30;0.20;;;31.30;55.50;;;;;;5104183;27;20185;-86
2023/06/27 12:11:03;;;;;;;0.28;0.28;;;31.30;55.90;;;;;;5100125;27;20204;-85
2023/06/27 12:13:35;;;;;;;0.40;0.32;;;31.30;55.60;;;;;;5101456;27;20209;-85
2023/06/27 12:16:04;;;;;;;1.05;0.55;;;31.30;55.90;;;;;;5095740;27;20224;-86
2023/06/27 12:18:33;;;;;;;0.80;0.40;;;31.30;55.10;;;;;;5107701;27;20225;-85
2023/06/27 12:21:03;;;;;;;0.20;0.20;;;31.30;55.30;;;;;;5096598;27;20197;-87
2023/06/27 12:23:31;;;;;;;0.90;0.60;;;31.40;54.80;;;;;;5106686;27;20207;-84
2023/06/27 12:26:00;;;;;;;0.63;0.32;;;31.50;54.10;;;;;;5094722;27;20201;-85
2023/06/27 12:28:28;;;;;;;0.30;0.30;;;31.50;53.60;;;;;;5106330;27;20200;-84
2023/06/27 12:30:57;;;;;;;0.25;0.25;;;31.40;54.20;;;;;;5099674;28;20215;-84
2023/06/27 12:33:25;;;;;;;1.65;0.63;;;31.40;54.70;;;;;;5099462;28;20250;-82
2023/06/27 12:35:54;;;;;;;0.30;0.30;;;31.40;54.90;;;;;;5096099;27;20233;-83
2023/06/27 12:38:24;;;;;;;0.40;0.40;;;31.40;55.00;;;;;;5105184;27;20758;-86
2023/06/27 12:40:52;;;;;;;0.65;0.60;;;31.50;55.20;;;;;;5100564;27;20279;-83
2023/06/27 12:43:20;;;;;;;0.65;0.65;;;31.50;54.90;;;;;;5104058;27;20196;-82
2023/06/27 12:46:04;;;;;;;0.40;0.40;;;31.60;55.60;;;;;;5103543;28;20197;-83
2023/06/27 12:48:33;;;;;;;0.52;0.52;;;31.80;56.00;;;;;;5099315;28;20188;-84
2023/06/27 12:51:02;;;;;;;0.40;0.40;;;31.70;54.80;;;;;;5103991;28;20197;-81
2023/06/27 12:53:32;;;;;;;1.70;0.40;;;31.60;54.40;;;;;;5097607;28;20193;-84
2023/06/27 12:56:02;;;;;;;0.30;0.30;;;31.50;54.40;;;;;;5098682;28;20197;-85
2023/06/27 12:58:31;;;;;;;0.82;0.52;;;31.50;54.50;;;;;;5106483;28;20211;-84
2023/06/27 13:01:00;;;;;;;1.00;0.43;;;31.40;54.40;;;;;;5110560;27;20200;-84